createdAt,value
2018-12-01T00:01:51.925Z,85.34
2018-12-01T00:07:10.480Z,85.13
2018-12-01T00:12:29.021Z,85.02
2018-12-01T00:17:47.773Z,85.58
2018-12-01T00:23:07.382Z,85.79
2018-12-01T00:28:26.124Z,85.57
2018-12-01T00:33:44.630Z,86.36
2018-12-01T00:39:03.362Z,86.14
2018-12-01T00:44:21.901Z,86.63
2018-12-01T00:49:40.469Z,87.09
2018-12-01T00:54:59.082Z,86.81
2018-12-01T01:00:23.140Z,87.00
2018-12-01T01:05:41.741Z,86.53
2018-12-01T01:11:00.334Z,86.83
2018-12-01T01:16:18.894Z,86.76
2018-12-01T01:21:37.633Z,86.76
2018-12-01T01:26:56.113Z,86.95
2018-12-01T01:32:14.727Z,86.61
2018-12-01T01:37:33.331Z,86.44
2018-12-01T01:42:51.874Z,86.62
2018-12-01T01:48:10.359Z,86.75
2018-12-01T01:53:28.938Z,86.84
2018-12-01T01:58:48.004Z,86.58
2018-12-01T02:04:06.867Z,86.22
2018-12-01T02:09:26.245Z,86.66
2018-12-01T02:14:44.883Z,86.25
2018-12-01T02:20:04.222Z,86.22
2018-12-01T02:25:22.738Z,86.21
2018-12-01T02:30:41.399Z,86.41
2018-12-01T02:36:00.038Z,86.25
2018-12-01T02:41:18.559Z,86.15
2018-12-01T02:46:48.121Z,85.74
2018-12-01T02:52:07.453Z,85.75
2018-12-01T02:57:26.097Z,86.00
2018-12-01T03:02:44.644Z,86.24
2018-12-01T03:08:03.288Z,85.52
2018-12-01T03:13:21.831Z,85.45
2018-12-01T03:18:40.453Z,85.63
2018-12-01T03:23:59.000Z,85.76
2018-12-01T03:29:17.499Z,85.84
2018-12-01T03:34:36.059Z,85.39
2018-12-01T03:39:54.959Z,85.91
2018-12-01T03:45:19.291Z,85.92
2018-12-01T03:50:38.645Z,85.79
2018-12-01T03:55:57.405Z,85.81
2018-12-01T04:01:16.038Z,85.52
2018-12-01T04:06:35.144Z,85.66
2018-12-01T04:11:53.707Z,84.76
2018-12-01T04:17:12.233Z,85.16
2018-12-01T04:22:30.811Z,85.09
2018-12-01T04:27:49.372Z,85.25
2018-12-01T04:33:07.921Z,85.43
2018-12-01T04:38:26.405Z,85.80
2018-12-01T04:43:45.072Z,85.95
2018-12-01T04:49:03.681Z,86.22
2018-12-01T04:54:22.214Z,86.52
2018-12-01T04:59:40.752Z,86.50
2018-12-01T05:04:59.308Z,85.97
2018-12-01T05:10:18.817Z,85.82
2018-12-01T05:15:37.358Z,86.07
2018-12-01T05:20:55.973Z,85.71
2018-12-01T05:26:14.438Z,85.96
2018-12-01T05:31:33.035Z,86.42
2018-12-01T05:36:51.853Z,86.82
2018-12-01T05:42:10.438Z,86.47
2018-12-01T05:47:29.006Z,86.94
2018-12-01T05:52:47.664Z,86.68
2018-12-01T05:58:06.237Z,86.86
2018-12-01T06:03:24.849Z,87.00
2018-12-01T06:08:43.518Z,87.21
2018-12-01T06:14:02.202Z,87.65
2018-12-01T06:19:20.834Z,87.75
2018-12-01T06:24:39.356Z,88.05
2018-12-01T06:29:57.919Z,88.08
2018-12-01T06:35:16.478Z,88.05
2018-12-01T06:40:35.187Z,87.90
2018-12-01T06:45:53.693Z,88.15
2018-12-01T06:51:12.437Z,88.00
2018-12-01T06:56:31.013Z,87.43
2018-12-01T07:01:49.536Z,87.67
2018-12-01T07:07:08.051Z,87.40
2018-12-01T07:12:26.673Z,87.57
2018-12-01T07:17:45.196Z,87.09
2018-12-01T07:23:03.753Z,86.83
2018-12-01T07:28:22.275Z,86.60
2018-12-01T07:33:40.851Z,86.01
2018-12-01T07:38:59.398Z,86.23
2018-12-01T07:44:17.936Z,86.08
2018-12-01T07:49:36.472Z,86.31
2018-12-01T07:54:54.989Z,85.82
2018-12-01T08:00:15.105Z,86.04
2018-12-01T08:05:33.713Z,86.11
2018-12-01T08:10:52.327Z,85.86
2018-12-01T08:16:11.276Z,85.27
2018-12-01T08:26:43.892Z,84.35
2018-12-01T08:32:02.407Z,84.29
2018-12-01T08:37:20.924Z,84.26
2018-12-01T08:42:39.598Z,83.21
2018-12-01T08:47:58.191Z,83.14
2018-12-01T08:53:16.716Z,82.43
2018-12-01T08:58:35.250Z,83.11
2018-12-01T09:03:53.772Z,82.70
2018-12-01T09:09:12.378Z,82.41
2018-12-01T09:14:30.981Z,81.72
2018-12-01T09:19:49.764Z,81.52
2018-12-01T09:25:09.922Z,81.66
2018-12-01T09:30:29.942Z,81.82
2018-12-01T09:35:48.413Z,82.20
2018-12-01T09:41:06.941Z,81.47
2018-12-01T09:46:25.553Z,81.72
2018-12-01T09:51:44.120Z,80.47
2018-12-01T09:57:02.669Z,80.08
2018-12-01T10:02:21.252Z,80.41
2018-12-01T10:07:39.826Z,79.51
2018-12-01T10:12:58.953Z,79.11
2018-12-01T10:18:17.499Z,78.52
2018-12-01T10:23:39.052Z,76.44
2018-12-01T10:28:58.216Z,77.26
2018-12-01T10:34:16.827Z,76.46
2018-12-01T10:39:35.417Z,76.36
2018-12-01T10:44:53.933Z,76.04
2018-12-01T10:50:14.540Z,77.51
2018-12-01T10:55:34.601Z,76.02
2018-12-01T11:00:58.350Z,76.92
2018-12-01T11:06:18.151Z,76.58
2018-12-01T11:11:37.502Z,76.67
2018-12-01T11:16:56.004Z,76.71
2018-12-01T11:22:14.600Z,76.73
2018-12-01T11:27:33.336Z,77.95
2018-12-01T11:32:51.973Z,77.67
2018-12-01T11:38:10.665Z,77.75
2018-12-01T11:43:29.184Z,77.94
2018-12-01T11:48:47.785Z,77.86
2018-12-01T11:54:06.466Z,77.19
2018-12-01T11:59:24.989Z,76.50
2018-12-01T12:04:43.556Z,76.35
2018-12-01T12:10:02.254Z,75.09
2018-12-01T12:15:21.955Z,74.36
2018-12-01T12:20:40.553Z,73.38
2018-12-01T12:25:59.125Z,73.37
2018-12-01T12:31:17.993Z,73.04
2018-12-01T12:36:36.569Z,71.52
2018-12-01T12:41:55.904Z,71.52
2018-12-01T12:47:14.441Z,70.36
2018-12-01T12:52:32.967Z,70.11
2018-12-01T12:57:51.800Z,70.08
2018-12-01T13:03:11.545Z,69.05
2018-12-01T13:08:30.077Z,70.32
2018-12-01T13:13:48.681Z,70.04
2018-12-01T13:19:07.346Z,70.02
2018-12-01T13:24:25.875Z,69.93
2018-12-01T13:29:44.485Z,70.86
2018-12-01T13:35:02.984Z,69.92
2018-12-01T13:40:21.531Z,70.22
2018-12-01T13:45:40.187Z,70.67
2018-12-01T13:50:58.822Z,70.87
2018-12-01T13:56:20.875Z,69.92
2018-12-01T14:01:36.063Z,69.58
2018-12-01T14:06:54.666Z,68.80
2018-12-01T14:12:13.143Z,67.38
2018-12-01T14:17:31.688Z,67.50
2018-12-01T14:22:50.788Z,68.32
2018-12-01T14:28:10.917Z,67.85
2018-12-01T14:33:29.493Z,68.19
2018-12-01T14:38:48.093Z,68.67
2018-12-01T14:44:06.720Z,68.71
2018-12-01T14:49:25.256Z,68.22
2018-12-01T14:54:43.756Z,68.88
2018-12-01T15:00:02.435Z,69.12
2018-12-01T15:05:21.059Z,69.76
2018-12-01T15:10:39.720Z,70.31
2018-12-01T15:15:58.294Z,69.63
2018-12-01T15:21:16.961Z,70.83
2018-12-01T15:26:35.545Z,71.88
2018-12-01T15:31:54.147Z,73.58
2018-12-01T15:37:12.774Z,73.65
2018-12-01T15:42:31.292Z,76.80
2018-12-01T15:47:49.846Z,76.62
2018-12-01T15:53:10.481Z,78.69
2018-12-01T15:58:29.010Z,79.20
2018-12-01T16:03:48.334Z,81.22
2018-12-01T16:09:09.496Z,80.79
2018-12-01T16:14:28.128Z,81.57
2018-12-01T16:19:46.836Z,81.48
2018-12-01T16:25:06.966Z,83.30
2018-12-01T16:30:28.613Z,83.70
2018-12-01T16:35:47.569Z,84.46
2018-12-01T16:41:12.253Z,84.76
2018-12-01T16:46:31.652Z,85.94
2018-12-01T16:51:50.183Z,85.70
2018-12-01T16:57:08.716Z,86.66
2018-12-01T17:02:27.837Z,86.59
2018-12-01T17:07:46.797Z,86.95
2018-12-01T17:13:07.062Z,87.20
2018-12-01T17:18:25.681Z,86.75
2018-12-01T17:23:44.200Z,87.90
2018-12-01T17:29:02.789Z,87.45
2018-12-01T17:34:22.642Z,87.90
2018-12-01T17:39:41.416Z,87.00
2018-12-01T17:45:00.008Z,86.50
2018-12-01T17:50:18.829Z,85.96
2018-12-01T17:55:37.503Z,86.57
2018-12-01T18:00:56.052Z,86.46
2018-12-01T18:06:15.731Z,85.89
2018-12-01T18:11:34.245Z,86.40
2018-12-01T18:16:52.840Z,86.47
2018-12-01T18:22:11.429Z,87.81
2018-12-01T18:27:31.050Z,88.71
2018-12-01T18:32:49.963Z,88.93
2018-12-01T18:38:09.779Z,89.52
2018-12-01T18:43:28.923Z,89.12
2018-12-01T18:48:47.740Z,89.23
2018-12-01T18:54:06.603Z,88.85
2018-12-01T18:59:25.125Z,88.39
2018-12-01T19:04:43.757Z,88.30
2018-12-01T19:10:03.004Z,88.44
2018-12-01T19:15:21.761Z,88.08
2018-12-01T19:20:40.484Z,87.87
2018-12-01T19:25:59.158Z,87.57
2018-12-01T19:31:18.173Z,87.53
2018-12-01T19:36:37.828Z,87.92
2018-12-01T19:41:56.455Z,88.41
2018-12-01T19:47:15.014Z,88.31
2018-12-01T19:52:33.639Z,88.53
2018-12-01T19:57:52.765Z,89.26
2018-12-01T20:03:14.373Z,89.55
2018-12-01T20:08:32.982Z,89.08
2018-12-01T20:13:52.184Z,89.44
2018-12-01T20:19:10.828Z,89.00
2018-12-01T20:24:29.541Z,89.40
2018-12-01T20:29:48.397Z,89.79
2018-12-01T20:35:07.893Z,90.23
2018-12-01T20:40:27.093Z,90.83
2018-12-01T20:45:46.226Z,90.39
2018-12-01T20:51:05.130Z,90.84
2018-12-01T20:56:25.635Z,90.41
2018-12-01T21:01:44.990Z,90.34
2018-12-01T21:07:04.233Z,90.48
2018-12-01T21:12:23.372Z,89.98
2018-12-01T21:17:43.339Z,90.40
2018-12-01T21:23:02.373Z,89.68
2018-12-01T21:28:20.996Z,89.52
2018-12-01T21:33:39.587Z,89.75
2018-12-01T21:38:58.247Z,89.05
2018-12-01T21:44:17.406Z,88.95
2018-12-01T21:49:36.931Z,88.55
2018-12-01T21:54:55.611Z,88.72
2018-12-01T22:00:20.559Z,88.41
2018-12-01T22:05:48.698Z,88.14
2018-12-01T22:11:08.952Z,88.25
2018-12-01T22:16:26.922Z,88.43
2018-12-01T22:21:45.636Z,88.37
2018-12-01T22:27:05.052Z,88.41
2018-12-01T22:32:23.826Z,89.29
2018-12-01T22:37:42.581Z,89.34
2018-12-01T22:43:05.219Z,89.07
2018-12-01T22:48:25.415Z,88.67
2018-12-01T22:53:44.729Z,88.53
2018-12-01T22:59:03.458Z,87.37
2018-12-01T23:04:23.292Z,86.65
2018-12-01T23:09:41.992Z,85.86
2018-12-01T23:15:00.510Z,85.27
2018-12-01T23:20:20.974Z,85.38
2018-12-01T23:25:39.727Z,85.04
2018-12-01T23:30:58.292Z,84.89
2018-12-01T23:36:17.567Z,84.89
2018-12-01T23:41:36.643Z,85.09
2018-12-01T23:46:55.551Z,84.87
2018-12-01T23:52:14.138Z,84.52
2018-12-01T23:57:33.530Z,84.22
